KHGR

Hagerstown Regional-Richard A Henson Field Airport

Hagerstown, Maryland, USA
METAR KHGR 151914Z 20004KT 3SM -SN SCT023 BKN036 OVC045 M03/M06 A2991 RMK AO2 P0000 T10331061
Observed Flight Rules
Dec-15 @ 19:14 UTC (28 minutes ago) Marginal Visual Flight Rules
Wind Visibility Clouds Conditions
200° at 4 knots 3 miles
  • Scattered at 2,300' AGL
  • Broken at 3,600' AGL
  • Overcast at 4,500' AGL
  • Light Snow
Temperatures Readings Precipitation
Current -3°C / 27°F
Dewpoint -6°C / 21°F
Humidity 80%
Altimeter 29.91" Hg
Pressure 1013 hPa
Elevation 224
Current Rain 0.005
METAR KHGR 151914Z 20004KT 3SM -SN SCT023 BKN036 OVC045 M03/M06 A2991 RMK AO2 P0000 T10331061
Observed Flight Rules
Dec-15 @ 19:14 UTC
(28 minutes ago)
MVFR
Wind Visibility
200° at 4 knots 3 miles
Clouds
  • Scattered at 2,300' AGL
  • Broken at 3,600' AGL
  • Overcast at 4,500' AGL
Conditions
  • Light Snow
Temperature Dewpoint
-3°C / 27°F -6°C / 21°F
Humidity Altimeter Pressure
80% 29.91" Hg 1013 hPa
Current Rain
0.005